sensor_id;sensor_type;location;lat;lon;timestamp;P1;durP1;ratioP1;P2;durP2;ratioP2
3333;SDS011;1679;50.392;8.008;2023-06-04T00:01:18;2.30;;;1.60;;
3333;SDS011;1679;50.392;8.008;2023-06-04T00:03:44;2.43;;;1.57;;
3333;SDS011;1679;50.392;8.008;2023-06-04T00:06:09;2.17;;;1.97;;
3333;SDS011;1679;50.392;8.008;2023-06-04T00:08:35;2.80;;;2.00;;
3333;SDS011;1679;50.392;8.008;2023-06-04T00:11:00;2.30;;;1.73;;
3333;SDS011;1679;50.392;8.008;2023-06-04T00:13:26;1.90;;;1.80;;
3333;SDS011;1679;50.392;8.008;2023-06-04T00:15:51;1.87;;;1.47;;
3333;SDS011;1679;50.392;8.008;2023-06-04T00:18:17;1.67;;;1.57;;
3333;SDS011;1679;50.392;8.008;2023-06-04T00:20:42;1.47;;;1.37;;
3333;SDS011;1679;50.392;8.008;2023-06-04T00:23:08;1.83;;;1.63;;
3333;SDS011;1679;50.392;8.008;2023-06-04T00:25:33;1.93;;;1.83;;
3333;SDS011;1679;50.392;8.008;2023-06-04T00:27:59;1.50;;;1.40;;
3333;SDS011;1679;50.392;8.008;2023-06-04T00:30:24;1.83;;;1.73;;
3333;SDS011;1679;50.392;8.008;2023-06-04T00:32:50;4.43;;;1.87;;
3333;SDS011;1679;50.392;8.008;2023-06-04T00:35:18;2.60;;;1.57;;
3333;SDS011;1679;50.392;8.008;2023-06-04T00:37:45;2.17;;;1.97;;
3333;SDS011;1679;50.392;8.008;2023-06-04T00:40:12;5.67;;;2.07;;
3333;SDS011;1679;50.392;8.008;2023-06-04T00:42:37;2.10;;;1.90;;
3333;SDS011;1679;50.392;8.008;2023-06-04T00:45:03;2.00;;;1.80;;
3333;SDS011;1679;50.392;8.008;2023-06-04T00:47:32;2.00;;;1.90;;
3333;SDS011;1679;50.392;8.008;2023-06-04T00:49:58;2.57;;;1.60;;
3333;SDS011;1679;50.392;8.008;2023-06-04T00:52:23;2.60;;;1.70;;
3333;SDS011;1679;50.392;8.008;2023-06-04T00:54:51;2.20;;;1.87;;
3333;SDS011;1679;50.392;8.008;2023-06-04T00:57:19;1.97;;;1.60;;
3333;SDS011;1679;50.392;8.008;2023-06-04T00:59:46;2.30;;;2.10;;
3333;SDS011;1679;50.392;8.008;2023-06-04T01:02:13;2.33;;;2.10;;
3333;SDS011;1679;50.392;8.008;2023-06-04T01:04:46;2.33;;;2.13;;
3333;SDS011;1679;50.392;8.008;2023-06-04T01:07:30;2.03;;;1.77;;
3333;SDS011;1679;50.392;8.008;2023-06-04T01:09:56;2.50;;;2.30;;
3333;SDS011;1679;50.392;8.008;2023-06-04T01:12:21;1.97;;;1.53;;
3333;SDS011;1679;50.392;8.008;2023-06-04T01:14:47;2.93;;;2.10;;
3333;SDS011;1679;50.392;8.008;2023-06-04T01:20:00;1.70;;;1.60;;
3333;SDS011;1679;50.392;8.008;2023-06-04T01:25:26;3.50;;;1.50;;
3333;SDS011;1679;50.392;8.008;2023-06-04T01:28:04;2.73;;;1.73;;
3333;SDS011;1679;50.392;8.008;2023-06-04T01:30:32;1.60;;;1.50;;
3333;SDS011;1679;50.392;8.008;2023-06-04T01:32:59;1.57;;;1.47;;
3333;SDS011;1679;50.392;8.008;2023-06-04T01:35:26;2.67;;;1.60;;
3333;SDS011;1679;50.392;8.008;2023-06-04T01:37:52;2.47;;;1.50;;
3333;SDS011;1679;50.392;8.008;2023-06-04T01:40:20;1.83;;;1.60;;
3333;SDS011;1679;50.392;8.008;2023-06-04T01:42:45;2.93;;;1.70;;
3333;SDS011;1679;50.392;8.008;2023-06-04T01:45:11;5.60;;;1.70;;
3333;SDS011;1679;50.392;8.008;2023-06-04T01:47:37;2.17;;;1.40;;
3333;SDS011;1679;50.392;8.008;2023-06-04T01:50:03;4.03;;;1.90;;
3333;SDS011;1679;50.392;8.008;2023-06-04T01:52:35;1.70;;;1.60;;
3333;SDS011;1679;50.392;8.008;2023-06-04T01:55:04;2.17;;;1.40;;
3333;SDS011;1679;50.392;8.008;2023-06-04T01:57:32;2.70;;;1.93;;
3333;SDS011;1679;50.392;8.008;2023-06-04T01:59:58;2.70;;;2.13;;
3333;SDS011;1679;50.392;8.008;2023-06-04T02:02:24;2.13;;;1.67;;
3333;SDS011;1679;50.392;8.008;2023-06-04T02:04:50;2.97;;;1.57;;
3333;SDS011;1679;50.392;8.008;2023-06-04T02:07:18;2.00;;;1.90;;
3333;SDS011;1679;50.392;8.008;2023-06-04T02:09:46;1.90;;;1.80;;
3333;SDS011;1679;50.392;8.008;2023-06-04T02:12:12;1.93;;;1.83;;
3333;SDS011;1679;50.392;8.008;2023-06-04T02:14:37;2.17;;;1.97;;
3333;SDS011;1679;50.392;8.008;2023-06-04T02:17:03;4.77;;;2.67;;
3333;SDS011;1679;50.392;8.008;2023-06-04T02:19:29;2.20;;;2.00;;
3333;SDS011;1679;50.392;8.008;2023-06-04T02:21:58;2.33;;;2.10;;
3333;SDS011;1679;50.392;8.008;2023-06-04T02:24:24;2.70;;;1.63;;
3333;SDS011;1679;50.392;8.008;2023-06-04T02:26:49;2.20;;;1.60;;
3333;SDS011;1679;50.392;8.008;2023-06-04T02:29:15;2.30;;;2.10;;
3333;SDS011;1679;50.392;8.008;2023-06-04T02:31:40;1.80;;;1.70;;
3333;SDS011;1679;50.392;8.008;2023-06-04T02:34:06;2.57;;;2.27;;
3333;SDS011;1679;50.392;8.008;2023-06-04T02:36:33;2.57;;;1.70;;
3333;SDS011;1679;50.392;8.008;2023-06-04T02:38:59;1.80;;;1.70;;
3333;SDS011;1679;50.392;8.008;2023-06-04T02:41:26;2.87;;;1.93;;
3333;SDS011;1679;50.392;8.008;2023-06-04T02:43:53;2.87;;;2.10;;
3333;SDS011;1679;50.392;8.008;2023-06-04T02:46:19;2.63;;;2.10;;
3333;SDS011;1679;50.392;8.008;2023-06-04T02:48:46;2.10;;;1.90;;
3333;SDS011;1679;50.392;8.008;2023-06-04T02:51:12;4.23;;;2.20;;
3333;SDS011;1679;50.392;8.008;2023-06-04T02:53:38;3.40;;;1.90;;
3333;SDS011;1679;50.392;8.008;2023-06-04T02:56:03;2.53;;;2.10;;
3333;SDS011;1679;50.392;8.008;2023-06-04T02:58:29;6.73;;;2.07;;
3333;SDS011;1679;50.392;8.008;2023-06-04T03:00:56;2.07;;;1.97;;
3333;SDS011;1679;50.392;8.008;2023-06-04T03:03:23;4.53;;;1.80;;
3333;SDS011;1679;50.392;8.008;2023-06-04T03:05:48;2.07;;;1.97;;
3333;SDS011;1679;50.392;8.008;2023-06-04T03:08:14;4.70;;;1.87;;
3333;SDS011;1679;50.392;8.008;2023-06-04T03:10:39;2.07;;;1.90;;
3333;SDS011;1679;50.392;8.008;2023-06-04T03:13:05;2.17;;;2.00;;
3333;SDS011;1679;50.392;8.008;2023-06-04T03:15:31;2.13;;;1.83;;
3333;SDS011;1679;50.392;8.008;2023-06-04T03:17:57;5.83;;;1.90;;
3333;SDS011;1679;50.392;8.008;2023-06-04T03:20:23;3.20;;;2.30;;
3333;SDS011;1679;50.392;8.008;2023-06-04T03:22:49;2.43;;;1.87;;
3333;SDS011;1679;50.392;8.008;2023-06-04T03:25:16;3.37;;;1.67;;
3333;SDS011;1679;50.392;8.008;2023-06-04T03:27:42;2.03;;;1.80;;
3333;SDS011;1679;50.392;8.008;2023-06-04T03:30:09;1.50;;;1.40;;
3333;SDS011;1679;50.392;8.008;2023-06-04T03:32:35;2.77;;;2.00;;
3333;SDS011;1679;50.392;8.008;2023-06-04T03:35:00;2.00;;;1.80;;
3333;SDS011;1679;50.392;8.008;2023-06-04T03:37:26;3.33;;;2.03;;
3333;SDS011;1679;50.392;8.008;2023-06-04T03:39:52;2.07;;;1.97;;
3333;SDS011;1679;50.392;8.008;2023-06-04T03:42:21;2.27;;;1.87;;
3333;SDS011;1679;50.392;8.008;2023-06-04T03:44:46;1.90;;;1.70;;
3333;SDS011;1679;50.392;8.008;2023-06-04T03:47:12;2.60;;;2.30;;
3333;SDS011;1679;50.392;8.008;2023-06-04T03:49:37;2.07;;;1.97;;
3333;SDS011;1679;50.392;8.008;2023-06-04T03:52:03;2.50;;;1.80;;
3333;SDS011;1679;50.392;8.008;2023-06-04T03:54:29;2.90;;;1.80;;
3333;SDS011;1679;50.392;8.008;2023-06-04T03:56:56;2.17;;;1.90;;
3333;SDS011;1679;50.392;8.008;2023-06-04T03:59:21;4.70;;;1.43;;
3333;SDS011;1679;50.392;8.008;2023-06-04T04:01:47;2.63;;;1.77;;
3333;SDS011;1679;50.392;8.008;2023-06-04T04:04:12;2.00;;;1.90;;
3333;SDS011;1679;50.392;8.008;2023-06-04T04:06:38;2.13;;;1.90;;
3333;SDS011;1679;50.392;8.008;2023-06-04T04:09:03;3.23;;;2.27;;
3333;SDS011;1679;50.392;8.008;2023-06-04T04:11:30;3.10;;;1.97;;
3333;SDS011;1679;50.392;8.008;2023-06-04T04:13:56;2.63;;;2.00;;
3333;SDS011;1679;50.392;8.008;2023-06-04T04:16:22;2.07;;;1.97;;
3333;SDS011;1679;50.392;8.008;2023-06-04T04:18:52;2.17;;;1.97;;
3333;SDS011;1679;50.392;8.008;2023-06-04T04:21:18;2.00;;;1.90;;
3333;SDS011;1679;50.392;8.008;2023-06-04T04:23:44;2.07;;;1.60;;
3333;SDS011;1679;50.392;8.008;2023-06-04T04:26:10;2.50;;;1.77;;
3333;SDS011;1679;50.392;8.008;2023-06-04T04:28:36;2.03;;;1.73;;
3333;SDS011;1679;50.392;8.008;2023-06-04T04:31:02;1.93;;;1.83;;
3333;SDS011;1679;50.392;8.008;2023-06-04T04:33:28;1.80;;;1.63;;
3333;SDS011;1679;50.392;8.008;2023-06-04T04:35:57;3.77;;;2.10;;
3333;SDS011;1679;50.392;8.008;2023-06-04T04:38:26;3.40;;;1.60;;
3333;SDS011;1679;50.392;8.008;2023-06-04T04:40:53;3.13;;;1.90;;
3333;SDS011;1679;50.392;8.008;2023-06-04T04:43:28;2.63;;;1.67;;
3333;SDS011;1679;50.392;8.008;2023-06-04T04:45:57;2.40;;;1.90;;
3333;SDS011;1679;50.392;8.008;2023-06-04T04:48:23;3.30;;;1.93;;
3333;SDS011;1679;50.392;8.008;2023-06-04T04:50:51;1.80;;;1.60;;
3333;SDS011;1679;50.392;8.008;2023-06-04T04:53:17;4.70;;;1.77;;
3333;SDS011;1679;50.392;8.008;2023-06-04T04:55:42;2.23;;;2.10;;
3333;SDS011;1679;50.392;8.008;2023-06-04T04:58:08;2.40;;;1.97;;
3333;SDS011;1679;50.392;8.008;2023-06-04T05:00:34;3.00;;;2.20;;
3333;SDS011;1679;50.392;8.008;2023-06-04T05:02:59;5.57;;;2.23;;
3333;SDS011;1679;50.392;8.008;2023-06-04T05:05:25;3.40;;;2.00;;
3333;SDS011;1679;50.392;8.008;2023-06-04T05:07:50;1.90;;;1.80;;
3333;SDS011;1679;50.392;8.008;2023-06-04T05:10:16;6.40;;;1.90;;
3333;SDS011;1679;50.392;8.008;2023-06-04T05:15:37;3.50;;;2.17;;
3333;SDS011;1679;50.392;8.008;2023-06-04T05:18:04;2.63;;;2.43;;
3333;SDS011;1679;50.392;8.008;2023-06-04T05:20:30;2.63;;;2.43;;
3333;SDS011;1679;50.392;8.008;2023-06-04T05:22:56;5.83;;;2.10;;
3333;SDS011;1679;50.392;8.008;2023-06-04T05:25:23;2.83;;;2.30;;
3333;SDS011;1679;50.392;8.008;2023-06-04T05:27:48;2.80;;;1.70;;
3333;SDS011;1679;50.392;8.008;2023-06-04T05:30:15;2.33;;;2.20;;
3333;SDS011;1679;50.392;8.008;2023-06-04T05:32:40;1.80;;;1.70;;
3333;SDS011;1679;50.392;8.008;2023-06-04T05:35:06;2.33;;;2.13;;
3333;SDS011;1679;50.392;8.008;2023-06-04T05:37:34;3.50;;;1.90;;
3333;SDS011;1679;50.392;8.008;2023-06-04T05:40:00;2.83;;;2.60;;
3333;SDS011;1679;50.392;8.008;2023-06-04T05:42:25;1.90;;;1.80;;
3333;SDS011;1679;50.392;8.008;2023-06-04T05:44:51;2.30;;;2.17;;
3333;SDS011;1679;50.392;8.008;2023-06-04T05:47:17;2.20;;;2.00;;
3333;SDS011;1679;50.392;8.008;2023-06-04T05:49:43;2.60;;;2.40;;
3333;SDS011;1679;50.392;8.008;2023-06-04T05:52:09;3.83;;;2.60;;
3333;SDS011;1679;50.392;8.008;2023-06-04T05:54:35;2.03;;;1.93;;
3333;SDS011;1679;50.392;8.008;2023-06-04T05:57:02;2.47;;;1.90;;
3333;SDS011;1679;50.392;8.008;2023-06-04T05:59:29;2.20;;;2.00;;
3333;SDS011;1679;50.392;8.008;2023-06-04T06:01:54;2.10;;;2.00;;
3333;SDS011;1679;50.392;8.008;2023-06-04T06:04:20;2.17;;;1.73;;
3333;SDS011;1679;50.392;8.008;2023-06-04T06:06:45;2.33;;;2.10;;
3333;SDS011;1679;50.392;8.008;2023-06-04T06:09:13;1.83;;;1.73;;
3333;SDS011;1679;50.392;8.008;2023-06-04T06:11:39;2.43;;;2.23;;
3333;SDS011;1679;50.392;8.008;2023-06-04T06:14:06;4.60;;;2.37;;
3333;SDS011;1679;50.392;8.008;2023-06-04T06:16:31;2.43;;;2.10;;
3333;SDS011;1679;50.392;8.008;2023-06-04T06:19:01;3.83;;;2.30;;
3333;SDS011;1679;50.392;8.008;2023-06-04T06:21:28;2.53;;;2.30;;
3333;SDS011;1679;50.392;8.008;2023-06-04T06:23:53;2.70;;;2.27;;
3333;SDS011;1679;50.392;8.008;2023-06-04T06:26:19;2.60;;;2.40;;
3333;SDS011;1679;50.392;8.008;2023-06-04T06:28:46;2.83;;;2.10;;
3333;SDS011;1679;50.392;8.008;2023-06-04T06:31:13;2.20;;;2.00;;
3333;SDS011;1679;50.392;8.008;2023-06-04T06:33:40;2.17;;;1.97;;
3333;SDS011;1679;50.392;8.008;2023-06-04T06:36:10;2.40;;;2.20;;
3333;SDS011;1679;50.392;8.008;2023-06-04T06:38:38;2.60;;;2.40;;
3333;SDS011;1679;50.392;8.008;2023-06-04T06:41:05;3.23;;;2.77;;
3333;SDS011;1679;50.392;8.008;2023-06-04T06:43:31;2.23;;;2.13;;
3333;SDS011;1679;50.392;8.008;2023-06-04T06:45:57;2.60;;;2.40;;
3333;SDS011;1679;50.392;8.008;2023-06-04T06:48:22;2.17;;;2.07;;
3333;SDS011;1679;50.392;8.008;2023-06-04T06:50:48;3.00;;;2.17;;
3333;SDS011;1679;50.392;8.008;2023-06-04T06:53:13;9.83;;;2.63;;
3333;SDS011;1679;50.392;8.008;2023-06-04T06:55:39;3.00;;;2.00;;
3333;SDS011;1679;50.392;8.008;2023-06-04T06:58:04;6.50;;;2.17;;
3333;SDS011;1679;50.392;8.008;2023-06-04T07:00:30;4.23;;;2.77;;
3333;SDS011;1679;50.392;8.008;2023-06-04T07:02:55;2.17;;;2.03;;
3333;SDS011;1679;50.392;8.008;2023-06-04T07:05:21;3.20;;;2.33;;
3333;SDS011;1679;50.392;8.008;2023-06-04T07:07:47;2.20;;;2.10;;
3333;SDS011;1679;50.392;8.008;2023-06-04T07:10:12;2.57;;;2.37;;
3333;SDS011;1679;50.392;8.008;2023-06-04T07:12:38;3.73;;;2.47;;
3333;SDS011;1679;50.392;8.008;2023-06-04T07:15:05;3.13;;;2.20;;
3333;SDS011;1679;50.392;8.008;2023-06-04T07:17:31;3.00;;;2.37;;
3333;SDS011;1679;50.392;8.008;2023-06-04T07:19:57;5.20;;;2.60;;
3333;SDS011;1679;50.392;8.008;2023-06-04T07:22:22;3.00;;;2.07;;
3333;SDS011;1679;50.392;8.008;2023-06-04T07:24:48;3.73;;;2.20;;
3333;SDS011;1679;50.392;8.008;2023-06-04T07:27:14;2.00;;;1.90;;
3333;SDS011;1679;50.392;8.008;2023-06-04T07:29:42;1.90;;;1.80;;
3333;SDS011;1679;50.392;8.008;2023-06-04T07:32:08;2.33;;;2.23;;
3333;SDS011;1679;50.392;8.008;2023-06-04T07:34:34;2.53;;;2.33;;
3333;SDS011;1679;50.392;8.008;2023-06-04T07:37:02;4.83;;;2.40;;
3333;SDS011;1679;50.392;8.008;2023-06-04T07:39:28;2.23;;;1.83;;
3333;SDS011;1679;50.392;8.008;2023-06-04T07:41:54;3.83;;;2.00;;
3333;SDS011;1679;50.392;8.008;2023-06-04T07:44:19;2.60;;;2.03;;
3333;SDS011;1679;50.392;8.008;2023-06-04T07:46:45;2.10;;;1.90;;
3333;SDS011;1679;50.392;8.008;2023-06-04T07:49:10;3.33;;;2.07;;
3333;SDS011;1679;50.392;8.008;2023-06-04T07:51:37;2.40;;;2.17;;
3333;SDS011;1679;50.392;8.008;2023-06-04T07:54:02;1.80;;;1.70;;
3333;SDS011;1679;50.392;8.008;2023-06-04T07:56:28;5.83;;;2.00;;
3333;SDS011;1679;50.392;8.008;2023-06-04T07:58:55;4.43;;;1.70;;
3333;SDS011;1679;50.392;8.008;2023-06-04T08:01:20;1.77;;;1.67;;
3333;SDS011;1679;50.392;8.008;2023-06-04T08:03:46;5.37;;;2.10;;
3333;SDS011;1679;50.392;8.008;2023-06-04T08:06:12;2.40;;;1.83;;
3333;SDS011;1679;50.392;8.008;2023-06-04T08:08:41;2.73;;;1.90;;
3333;SDS011;1679;50.392;8.008;2023-06-04T08:11:10;6.73;;;2.40;;
3333;SDS011;1679;50.392;8.008;2023-06-04T08:13:36;2.00;;;1.90;;
3333;SDS011;1679;50.392;8.008;2023-06-04T08:16:01;1.87;;;1.73;;
3333;SDS011;1679;50.392;8.008;2023-06-04T08:18:27;2.93;;;1.80;;
3333;SDS011;1679;50.392;8.008;2023-06-04T08:20:52;2.00;;;1.90;;
3333;SDS011;1679;50.392;8.008;2023-06-04T08:23:18;2.20;;;1.87;;
3333;SDS011;1679;50.392;8.008;2023-06-04T08:25:43;2.83;;;1.77;;
3333;SDS011;1679;50.392;8.008;2023-06-04T08:28:10;2.00;;;1.90;;
3333;SDS011;1679;50.392;8.008;2023-06-04T08:30:35;2.17;;;1.87;;
3333;SDS011;1679;50.392;8.008;2023-06-04T08:33:02;2.80;;;1.70;;
3333;SDS011;1679;50.392;8.008;2023-06-04T08:35:29;2.47;;;1.90;;
3333;SDS011;1679;50.392;8.008;2023-06-04T08:37:54;2.93;;;2.00;;
3333;SDS011;1679;50.392;8.008;2023-06-04T08:40:20;1.80;;;1.70;;
3333;SDS011;1679;50.392;8.008;2023-06-04T08:42:47;1.97;;;1.87;;
3333;SDS011;1679;50.392;8.008;2023-06-04T08:45:13;1.90;;;1.50;;
3333;SDS011;1679;50.392;8.008;2023-06-04T08:47:45;2.37;;;2.00;;
3333;SDS011;1679;50.392;8.008;2023-06-04T08:50:14;2.00;;;1.90;;
3333;SDS011;1679;50.392;8.008;2023-06-04T08:52:42;3.73;;;2.00;;
3333;SDS011;1679;50.392;8.008;2023-06-04T08:55:08;2.27;;;1.80;;
3333;SDS011;1679;50.392;8.008;2023-06-04T08:57:38;3.13;;;1.77;;
3333;SDS011;1679;50.392;8.008;2023-06-04T09:00:04;1.57;;;1.47;;
3333;SDS011;1679;50.392;8.008;2023-06-04T09:02:32;2.63;;;1.60;;
3333;SDS011;1679;50.392;8.008;2023-06-04T09:05:01;1.73;;;1.63;;
3333;SDS011;1679;50.392;8.008;2023-06-04T09:07:29;2.70;;;1.80;;
3333;SDS011;1679;50.392;8.008;2023-06-04T09:09:56;2.33;;;1.90;;
3333;SDS011;1679;50.392;8.008;2023-06-04T09:12:23;1.90;;;1.80;;
3333;SDS011;1679;50.392;8.008;2023-06-04T09:14:50;5.47;;;1.40;;
3333;SDS011;1679;50.392;8.008;2023-06-04T09:17:20;3.90;;;1.60;;
3333;SDS011;1679;50.392;8.008;2023-06-04T09:19:47;2.50;;;1.43;;
3333;SDS011;1679;50.392;8.008;2023-06-04T09:22:15;1.90;;;1.80;;
3333;SDS011;1679;50.392;8.008;2023-06-04T09:24:42;1.60;;;1.50;;
3333;SDS011;1679;50.392;8.008;2023-06-04T09:27:18;1.67;;;1.50;;
3333;SDS011;1679;50.392;8.008;2023-06-04T09:29:48;5.20;;;1.70;;
3333;SDS011;1679;50.392;8.008;2023-06-04T09:32:20;2.10;;;1.30;;
3333;SDS011;1679;50.392;8.008;2023-06-04T09:34:53;2.40;;;1.70;;
3333;SDS011;1679;50.392;8.008;2023-06-04T09:37:19;1.43;;;1.27;;
3333;SDS011;1679;50.392;8.008;2023-06-04T09:39:53;3.23;;;1.80;;
3333;SDS011;1679;50.392;8.008;2023-06-04T09:42:20;2.23;;;1.50;;
3333;SDS011;1679;50.392;8.008;2023-06-04T09:44:46;2.07;;;1.50;;
3333;SDS011;1679;50.392;8.008;2023-06-04T09:47:11;3.53;;;1.60;;
3333;SDS011;1679;50.392;8.008;2023-06-04T09:49:44;3.03;;;1.67;;
3333;SDS011;1679;50.392;8.008;2023-06-04T09:52:12;1.77;;;1.67;;
3333;SDS011;1679;50.392;8.008;2023-06-04T09:54:39;2.47;;;2.00;;
3333;SDS011;1679;50.392;8.008;2023-06-04T09:57:13;4.33;;;1.40;;
3333;SDS011;1679;50.392;8.008;2023-06-04T09:59:44;1.80;;;1.43;;
3333;SDS011;1679;50.392;8.008;2023-06-04T10:02:13;4.40;;;1.40;;
3333;SDS011;1679;50.392;8.008;2023-06-04T10:04:43;3.93;;;1.57;;
3333;SDS011;1679;50.392;8.008;2023-06-04T10:07:13;1.60;;;1.50;;
3333;SDS011;1679;50.392;8.008;2023-06-04T10:09:40;3.40;;;1.50;;
3333;SDS011;1679;50.392;8.008;2023-06-04T10:12:11;3.57;;;1.60;;
3333;SDS011;1679;50.392;8.008;2023-06-04T10:14:50;1.83;;;1.73;;
3333;SDS011;1679;50.392;8.008;2023-06-04T10:17:22;2.80;;;1.47;;
3333;SDS011;1679;50.392;8.008;2023-06-04T10:19:49;1.73;;;1.40;;
3333;SDS011;1679;50.392;8.008;2023-06-04T10:22:17;3.30;;;1.57;;
3333;SDS011;1679;50.392;8.008;2023-06-04T10:24:43;2.07;;;1.73;;
3333;SDS011;1679;50.392;8.008;2023-06-04T10:27:09;3.43;;;1.50;;
3333;SDS011;1679;50.392;8.008;2023-06-04T10:29:37;4.57;;;1.33;;
3333;SDS011;1679;50.392;8.008;2023-06-04T10:32:07;1.47;;;1.37;;
3333;SDS011;1679;50.392;8.008;2023-06-04T10:34:33;3.90;;;1.57;;
3333;SDS011;1679;50.392;8.008;2023-06-04T10:37:00;1.97;;;1.77;;
3333;SDS011;1679;50.392;8.008;2023-06-04T10:39:28;2.90;;;1.70;;
3333;SDS011;1679;50.392;8.008;2023-06-04T10:42:01;4.87;;;1.87;;
3333;SDS011;1679;50.392;8.008;2023-06-04T10:44:29;1.80;;;1.70;;
3333;SDS011;1679;50.392;8.008;2023-06-04T10:46:57;5.90;;;1.80;;
3333;SDS011;1679;50.392;8.008;2023-06-04T10:49:27;1.40;;;1.30;;
3333;SDS011;1679;50.392;8.008;2023-06-04T10:51:55;2.80;;;1.90;;
3333;SDS011;1679;50.392;8.008;2023-06-04T10:54:28;2.00;;;1.90;;
3333;SDS011;1679;50.392;8.008;2023-06-04T10:56:54;2.23;;;2.03;;
3333;SDS011;1679;50.392;8.008;2023-06-04T10:59:20;3.97;;;1.93;;
3333;SDS011;1679;50.392;8.008;2023-06-04T11:01:46;3.30;;;1.73;;
3333;SDS011;1679;50.392;8.008;2023-06-04T11:04:22;2.40;;;1.67;;
3333;SDS011;1679;50.392;8.008;2023-06-04T11:06:59;3.17;;;1.93;;
3333;SDS011;1679;50.392;8.008;2023-06-04T11:09:33;2.37;;;1.70;;
3333;SDS011;1679;50.392;8.008;2023-06-04T11:12:06;2.20;;;2.00;;
3333;SDS011;1679;50.392;8.008;2023-06-04T11:14:32;2.53;;;1.97;;
3333;SDS011;1679;50.392;8.008;2023-06-04T11:16:57;2.37;;;1.70;;
3333;SDS011;1679;50.392;8.008;2023-06-04T11:19:36;2.17;;;1.97;;
3333;SDS011;1679;50.392;8.008;2023-06-04T11:22:02;3.57;;;1.97;;
3333;SDS011;1679;50.392;8.008;2023-06-04T11:24:29;2.17;;;2.07;;
3333;SDS011;1679;50.392;8.008;2023-06-04T11:26:56;2.60;;;2.00;;
3333;SDS011;1679;50.392;8.008;2023-06-04T11:29:24;2.60;;;1.70;;
3333;SDS011;1679;50.392;8.008;2023-06-04T11:31:50;2.27;;;2.17;;
3333;SDS011;1679;50.392;8.008;2023-06-04T11:34:25;3.70;;;2.20;;
3333;SDS011;1679;50.392;8.008;2023-06-04T11:36:52;3.00;;;2.10;;
3333;SDS011;1679;50.392;8.008;2023-06-04T11:39:18;3.43;;;2.23;;
3333;SDS011;1679;50.392;8.008;2023-06-04T11:41:45;4.67;;;2.20;;
3333;SDS011;1679;50.392;8.008;2023-06-04T11:44:11;2.53;;;2.20;;
3333;SDS011;1679;50.392;8.008;2023-06-04T11:46:43;2.30;;;2.20;;
3333;SDS011;1679;50.392;8.008;2023-06-04T11:49:14;2.47;;;2.10;;
3333;SDS011;1679;50.392;8.008;2023-06-04T11:51:45;2.17;;;2.07;;
3333;SDS011;1679;50.392;8.008;2023-06-04T11:54:15;7.63;;;2.10;;
3333;SDS011;1679;50.392;8.008;2023-06-04T11:56:41;2.50;;;2.30;;
3333;SDS011;1679;50.392;8.008;2023-06-04T11:59:11;3.20;;;2.90;;
3333;SDS011;1679;50.392;8.008;2023-06-04T12:01:39;3.10;;;2.80;;
3333;SDS011;1679;50.392;8.008;2023-06-04T12:04:14;2.60;;;2.40;;
3333;SDS011;1679;50.392;8.008;2023-06-04T12:09:44;3.77;;;2.70;;
3333;SDS011;1679;50.392;8.008;2023-06-04T12:12:11;2.80;;;2.53;;
3333;SDS011;1679;50.392;8.008;2023-06-04T12:14:37;5.27;;;3.40;;
3333;SDS011;1679;50.392;8.008;2023-06-04T12:17:06;3.10;;;2.83;;
3333;SDS011;1679;50.392;8.008;2023-06-04T12:19:33;5.60;;;1.90;;
3333;SDS011;1679;50.392;8.008;2023-06-04T12:22:09;2.87;;;2.67;;
3333;SDS011;1679;50.392;8.008;2023-06-04T12:24:45;2.73;;;2.47;;
3333;SDS011;1679;50.392;8.008;2023-06-04T12:27:13;2.53;;;2.33;;
3333;SDS011;1679;50.392;8.008;2023-06-04T12:29:39;2.63;;;2.43;;
3333;SDS011;1679;50.392;8.008;2023-06-04T12:32:06;5.10;;;2.80;;
3333;SDS011;1679;50.392;8.008;2023-06-04T12:34:38;2.63;;;2.50;;
3333;SDS011;1679;50.392;8.008;2023-06-04T12:37:07;2.90;;;2.70;;
3333;SDS011;1679;50.392;8.008;2023-06-04T12:39:33;2.77;;;2.57;;
3333;SDS011;1679;50.392;8.008;2023-06-04T12:41:59;2.83;;;2.73;;
3333;SDS011;1679;50.392;8.008;2023-06-04T12:44:25;3.00;;;2.80;;
3333;SDS011;1679;50.392;8.008;2023-06-04T12:46:50;3.27;;;3.07;;
3333;SDS011;1679;50.392;8.008;2023-06-04T12:49:17;3.83;;;3.50;;
3333;SDS011;1679;50.392;8.008;2023-06-04T12:51:42;3.63;;;3.30;;
3333;SDS011;1679;50.392;8.008;2023-06-04T12:54:08;3.70;;;3.40;;
3333;SDS011;1679;50.392;8.008;2023-06-04T12:56:35;3.63;;;3.33;;
3333;SDS011;1679;50.392;8.008;2023-06-04T12:59:01;3.70;;;3.50;;
3333;SDS011;1679;50.392;8.008;2023-06-04T13:01:27;4.30;;;3.60;;
3333;SDS011;1679;50.392;8.008;2023-06-04T13:03:52;4.13;;;3.90;;
3333;SDS011;1679;50.392;8.008;2023-06-04T13:06:18;3.50;;;3.30;;
3333;SDS011;1679;50.392;8.008;2023-06-04T13:08:44;4.77;;;3.30;;
3333;SDS011;1679;50.392;8.008;2023-06-04T13:11:09;5.40;;;3.63;;
3333;SDS011;1679;50.392;8.008;2023-06-04T13:13:36;4.03;;;3.73;;
3333;SDS011;1679;50.392;8.008;2023-06-04T13:16:02;3.50;;;3.20;;
3333;SDS011;1679;50.392;8.008;2023-06-04T13:18:27;4.40;;;4.00;;
3333;SDS011;1679;50.392;8.008;2023-06-04T13:20:53;4.27;;;3.90;;
3333;SDS011;1679;50.392;8.008;2023-06-04T13:23:19;5.73;;;3.80;;
3333;SDS011;1679;50.392;8.008;2023-06-04T13:25:45;3.23;;;3.03;;
3333;SDS011;1679;50.392;8.008;2023-06-04T13:28:11;3.73;;;3.33;;
3333;SDS011;1679;50.392;8.008;2023-06-04T13:30:38;3.90;;;3.50;;
3333;SDS011;1679;50.392;8.008;2023-06-04T13:33:04;4.20;;;3.80;;
3333;SDS011;1679;50.392;8.008;2023-06-04T13:35:31;3.80;;;3.60;;
3333;SDS011;1679;50.392;8.008;2023-06-04T13:37:58;4.83;;;4.43;;
3333;SDS011;1679;50.392;8.008;2023-06-04T13:40:23;4.00;;;3.70;;
3333;SDS011;1679;50.392;8.008;2023-06-04T13:42:49;3.77;;;3.47;;
3333;SDS011;1679;50.392;8.008;2023-06-04T13:45:15;4.40;;;4.10;;
3333;SDS011;1679;50.392;8.008;2023-06-04T13:47:41;4.03;;;3.77;;
3333;SDS011;1679;50.392;8.008;2023-06-04T13:50:07;4.37;;;3.63;;
3333;SDS011;1679;50.392;8.008;2023-06-04T13:52:33;4.50;;;4.20;;
3333;SDS011;1679;50.392;8.008;2023-06-04T13:54:59;4.17;;;3.90;;
3333;SDS011;1679;50.392;8.008;2023-06-04T13:57:24;3.90;;;3.70;;
3333;SDS011;1679;50.392;8.008;2023-06-04T13:59:51;4.70;;;3.80;;
3333;SDS011;1679;50.392;8.008;2023-06-04T14:02:16;4.10;;;3.80;;
3333;SDS011;1679;50.392;8.008;2023-06-04T14:04:42;3.93;;;3.67;;
3333;SDS011;1679;50.392;8.008;2023-06-04T14:07:08;4.20;;;3.80;;
3333;SDS011;1679;50.392;8.008;2023-06-04T14:09:33;3.93;;;3.73;;
3333;SDS011;1679;50.392;8.008;2023-06-04T14:12:01;4.10;;;3.80;;
3333;SDS011;1679;50.392;8.008;2023-06-04T14:14:27;4.50;;;4.20;;
3333;SDS011;1679;50.392;8.008;2023-06-04T14:17:00;4.70;;;4.13;;
3333;SDS011;1679;50.392;8.008;2023-06-04T14:19:26;4.50;;;4.20;;
3333;SDS011;1679;50.392;8.008;2023-06-04T14:21:52;4.17;;;3.97;;
3333;SDS011;1679;50.392;8.008;2023-06-04T14:24:17;4.40;;;4.00;;
3333;SDS011;1679;50.392;8.008;2023-06-04T14:26:43;4.10;;;3.80;;
3333;SDS011;1679;50.392;8.008;2023-06-04T14:29:08;4.97;;;4.60;;
3333;SDS011;1679;50.392;8.008;2023-06-04T14:31:34;4.73;;;4.30;;
3333;SDS011;1679;50.392;8.008;2023-06-04T14:34:00;6.37;;;4.40;;
3333;SDS011;1679;50.392;8.008;2023-06-04T14:36:25;4.90;;;4.50;;
3333;SDS011;1679;50.392;8.008;2023-06-04T14:38:51;4.73;;;4.33;;
3333;SDS011;1679;50.392;8.008;2023-06-04T14:41:16;4.67;;;4.30;;
3333;SDS011;1679;50.392;8.008;2023-06-04T14:43:41;5.27;;;4.90;;
3333;SDS011;1679;50.392;8.008;2023-06-04T14:46:07;5.13;;;4.40;;
3333;SDS011;1679;50.392;8.008;2023-06-04T14:48:32;7.17;;;4.37;;
3333;SDS011;1679;50.392;8.008;2023-06-04T14:50:58;5.13;;;4.83;;
3333;SDS011;1679;50.392;8.008;2023-06-04T14:53:24;4.67;;;4.37;;
3333;SDS011;1679;50.392;8.008;2023-06-04T14:55:49;5.03;;;4.73;;
3333;SDS011;1679;50.392;8.008;2023-06-04T14:58:16;5.10;;;4.63;;
3333;SDS011;1679;50.392;8.008;2023-06-04T15:00:42;4.73;;;4.43;;
3333;SDS011;1679;50.392;8.008;2023-06-04T15:03:07;5.57;;;5.07;;
3333;SDS011;1679;50.392;8.008;2023-06-04T15:05:33;5.40;;;4.77;;
3333;SDS011;1679;50.392;8.008;2023-06-04T15:07:59;5.27;;;4.97;;
3333;SDS011;1679;50.392;8.008;2023-06-04T15:10:25;5.03;;;4.73;;
3333;SDS011;1679;50.392;8.008;2023-06-04T15:12:54;4.50;;;4.30;;
3333;SDS011;1679;50.392;8.008;2023-06-04T15:15:22;4.80;;;4.40;;
3333;SDS011;1679;50.392;8.008;2023-06-04T15:17:49;6.07;;;5.77;;
3333;SDS011;1679;50.392;8.008;2023-06-04T15:20:15;5.30;;;4.90;;
3333;SDS011;1679;50.392;8.008;2023-06-04T15:22:40;5.77;;;5.27;;
3333;SDS011;1679;50.392;8.008;2023-06-04T15:25:06;5.73;;;5.30;;